Time;durP1;ratioP1;P1;durP2;ratioP2;P2;SDS_P1;SDS_P2;PMS_P1;PMS_P2;Temp;Humidity;BMP_temperature;BMP_pressure;BME280_temperature;BME280_humidity;BME280_pressure;Samples;Min_cycle;Max_cycle;Signal;HPM_P1;HPM_P2
2023/04/28 00:02:15;;;;;;;11.27;5.57;;;13.90;72.40;;;;;;6127204;23;20064;-69
2023/04/28 00:04:41;;;;;;;8.98;5.07;;;13.80;71.90;;;;;;6127465;23;20004;-69
2023/04/28 00:07:07;;;;;;;10.32;5.05;;;13.80;71.90;;;;;;6126950;23;20080;-69
2023/04/28 00:09:33;;;;;;;10.07;5.15;;;13.80;71.70;;;;;;6126909;23;20010;-69
2023/04/28 00:11:58;;;;;;;13.73;5.65;;;13.80;71.60;;;;;;6126999;23;19997;-69
2023/04/28 00:14:25;;;;;;;6.18;4.22;;;13.80;70.80;;;;;;6127404;23;20053;-69
2023/04/28 00:16:50;;;;;;;6.75;4.25;;;13.80;70.20;;;;;;6126769;23;19998;-69
2023/04/28 00:19:16;;;;;;;11.00;4.80;;;13.80;69.50;;;;;;6125133;23;20017;-69
2023/04/28 00:21:42;;;;;;;8.52;4.03;;;13.70;70.60;;;;;;6126836;23;20009;-69
2023/04/28 00:24:07;;;;;;;7.38;4.10;;;13.70;71.00;;;;;;6126937;23;20002;-69
2023/04/28 00:26:33;;;;;;;7.03;4.35;;;13.70;71.40;;;;;;6126628;23;20049;-69
2023/04/28 00:28:59;;;;;;;6.20;4.13;;;13.70;71.30;;;;;;6100872;23;20010;-69
2023/04/28 00:31:25;;;;;;;9.60;4.47;;;13.70;71.40;;;;;;6126951;23;20045;-69
2023/04/28 00:33:50;;;;;;;10.68;4.68;;;13.60;71.10;;;;;;6127086;23;20002;-68
2023/04/28 00:36:16;;;;;;;18.90;5.65;;;13.60;71.40;;;;;;6127020;23;20029;-69
2023/04/28 00:38:42;;;;;;;13.13;5.38;;;13.60;71.60;;;;;;6126932;23;20036;-69
2023/04/28 00:41:11;;;;;;;19.88;5.85;;;13.50;71.20;;;;;;6126658;23;19998;-69
2023/04/28 00:43:44;;;;;;;12.60;5.40;;;13.50;71.20;;;;;;6127042;23;20416;-69
2023/04/28 00:46:16;;;;;;;18.05;5.35;;;13.50;71.40;;;;;;6126859;23;20010;-69
2023/04/28 00:48:42;;;;;;;16.00;6.18;;;13.50;72.00;;;;;;6126566;23;19998;-69
2023/04/28 00:51:08;;;;;;;12.32;5.22;;;13.50;72.00;;;;;;6126173;23;20373;-69
2023/04/28 00:53:34;;;;;;;15.98;5.55;;;13.40;72.60;;;;;;6126907;23;20005;-69
2023/04/28 00:56:00;;;;;;;9.80;5.15;;;13.40;73.10;;;;;;6127069;23;20047;-69
2023/04/28 00:58:26;;;;;;;10.93;4.68;;;13.40;72.90;;;;;;6124677;23;20092;-69
2023/04/28 01:00:51;;;;;;;11.52;4.72;;;13.40;73.50;;;;;;6123168;23;20005;-69
2023/04/28 01:03:17;;;;;;;9.65;4.00;;;13.30;73.10;;;;;;6123412;23;20010;-69
2023/04/28 01:05:43;;;;;;;6.78;4.30;;;13.30;72.50;;;;;;6126267;23;20076;-69
2023/04/28 01:08:09;;;;;;;10.63;4.13;;;13.30;72.60;;;;;;6125106;23;20041;-69
2023/04/28 01:10:35;;;;;;;15.20;4.68;;;13.30;72.60;;;;;;6126890;23;20049;-69
2023/04/28 01:13:01;;;;;;;10.85;4.43;;;13.30;72.20;;;;;;6126219;23;20029;-69
2023/04/28 01:15:27;;;;;;;14.20;4.90;;;13.20;72.10;;;;;;6126484;23;19998;-69
2023/04/28 01:17:53;;;;;;;9.68;4.50;;;13.20;73.30;;;;;;6126397;23;20433;-69
2023/04/28 01:20:19;;;;;;;7.75;4.20;;;13.20;73.40;;;;;;6126040;23;20029;-69
2023/04/28 01:22:45;;;;;;;10.80;4.13;;;13.10;73.30;;;;;;6125922;23;20442;-69
2023/04/28 01:25:10;;;;;;;9.05;4.50;;;13.10;72.80;;;;;;6126519;23;20006;-70
2023/04/28 01:27:36;;;;;;;11.95;5.07;;;13.10;72.70;;;;;;6125954;23;20002;-70
2023/04/28 01:30:02;;;;;;;17.27;5.78;;;13.10;72.80;;;;;;6126302;23;20005;-69
2023/04/28 01:32:28;;;;;;;13.85;5.15;;;13.10;73.50;;;;;;6126168;23;20063;-69
2023/04/28 01:34:53;;;;;;;12.95;4.47;;;13.00;73.80;;;;;;6126472;23;20048;-69
2023/04/28 01:37:19;;;;;;;20.05;6.20;;;13.00;73.80;;;;;;6125852;23;20006;-69
2023/04/28 01:39:45;;;;;;;16.55;4.90;;;13.00;73.40;;;;;;6126183;23;20009;-69
2023/04/28 01:42:11;;;;;;;20.08;4.95;;;13.00;72.90;;;;;;6126376;23;20025;-69
2023/04/28 01:44:36;;;;;;;20.95;4.68;;;12.90;73.00;;;;;;6125992;23;20355;-69
2023/04/28 01:47:02;;;;;;;18.58;4.80;;;12.90;73.20;;;;;;6126481;23;20002;-69
2023/04/28 01:49:28;;;;;;;17.15;4.30;;;12.90;73.30;;;;;;6126288;23;20002;-68
2023/04/28 01:51:53;;;;;;;20.02;4.70;;;12.90;73.20;;;;;;6126283;23;20014;-70
2023/04/28 01:54:19;;;;;;;29.73;6.07;;;12.90;72.50;;;;;;6126224;23;20472;-69
2023/04/28 01:56:45;;;;;;;15.90;5.45;;;12.80;72.60;;;;;;6126231;23;20409;-69
2023/04/28 01:59:10;;;;;;;13.68;5.70;;;12.80;72.90;;;;;;6126015;23;20347;-69
2023/04/28 02:01:36;;;;;;;15.25;5.40;;;12.80;74.20;;;;;;6125911;23;20001;-69
2023/04/28 02:04:02;;;;;;;8.70;4.88;;;12.80;73.70;;;;;;6126355;23;20010;-69
2023/04/28 02:06:28;;;;;;;8.40;4.50;;;12.70;74.10;;;;;;6125843;23;19998;-69
2023/04/28 02:08:53;;;;;;;5.93;4.57;;;12.70;74.40;;;;;;6126136;23;20021;-69
2023/04/28 02:11:19;;;;;;;10.55;5.55;;;12.60;74.50;;;;;;6125871;23;20436;-69
2023/04/28 02:13:45;;;;;;;6.43;4.18;;;12.60;74.80;;;;;;6100241;23;20092;-69
2023/04/28 02:16:11;;;;;;;10.30;4.25;;;12.60;74.90;;;;;;6126191;23;20006;-69
2023/04/28 02:18:37;;;;;;;15.05;4.15;;;12.50;74.80;;;;;;6125974;23;20042;-69
2023/04/28 02:21:10;;;;;;;22.23;4.20;;;12.50;74.90;;;;;;6125826;23;20002;-69
2023/04/28 02:23:36;;;;;;;9.98;4.25;;;12.50;75.00;;;;;;6126383;23;20369;-69
2023/04/28 02:26:02;;;;;;;13.02;4.57;;;12.50;75.00;;;;;;6126012;23;20077;-69
2023/04/28 02:28:29;;;;;;;14.25;4.32;;;12.50;75.40;;;;;;6125822;23;20421;-69
2023/04/28 02:31:08;;;;;;;15.23;4.45;;;12.50;75.40;;;;;;6126326;23;20013;-68
2023/04/28 02:33:34;;;;;;;7.03;4.15;;;12.40;75.60;;;;;;6125938;23;20053;-69
2023/04/28 02:36:01;;;;;;;6.07;3.67;;;12.50;75.60;;;;;;6126059;23;20082;-69
2023/04/28 02:38:28;;;;;;;7.53;3.80;;;12.40;75.60;;;;;;6125882;23;20010;-69
2023/04/28 02:41:04;;;;;;;12.50;4.35;;;12.40;75.80;;;;;;6126013;23;20049;-69
2023/04/28 02:43:31;;;;;;;10.32;4.10;;;12.40;75.80;;;;;;6125853;23;20006;-69
2023/04/28 02:45:57;;;;;;;7.93;3.75;;;12.40;75.80;;;;;;6125790;23;20440;-69
2023/04/28 02:48:26;;;;;;;10.75;3.80;;;12.40;75.70;;;;;;6125792;23;20421;-69
2023/04/28 02:50:52;;;;;;;14.20;4.18;;;12.40;75.60;;;;;;6125244;23;20018;-69
2023/04/28 02:53:21;;;;;;;6.40;3.67;;;12.30;75.40;;;;;;6125472;23;20081;-69
2023/04/28 02:55:47;;;;;;;16.55;4.03;;;12.30;75.60;;;;;;6125487;23;19998;-69
2023/04/28 02:58:13;;;;;;;12.52;3.65;;;12.30;75.80;;;;;;6125580;23;20014;-68
2023/04/28 03:00:38;;;;;;;15.95;3.90;;;12.30;75.90;;;;;;6125690;23;20057;-69
2023/04/28 03:03:04;;;;;;;18.17;4.43;;;12.20;75.90;;;;;;6125952;23;20006;-69
2023/04/28 03:05:30;;;;;;;9.43;3.22;;;12.20;76.30;;;;;;6125862;23;20388;-69
2023/04/28 03:07:56;;;;;;;18.70;3.70;;;12.20;76.80;;;;;;6125839;23;20002;-69
2023/04/28 03:10:22;;;;;;;10.35;3.20;;;12.20;76.30;;;;;;6099880;23;20082;-68
2023/04/28 03:12:47;;;;;;;9.57;3.50;;;12.10;76.20;;;;;;6125373;23;20002;-68
2023/04/28 03:15:13;;;;;;;13.82;3.75;;;12.20;76.30;;;;;;6125706;23;20024;-69
2023/04/28 03:17:40;;;;;;;10.57;3.88;;;12.10;76.60;;;;;;6125637;23;20310;-69
2023/04/28 03:20:07;;;;;;;13.02;3.00;;;12.10;76.70;;;;;;6125819;23;20009;-69
2023/04/28 03:22:33;;;;;;;6.75;2.85;;;12.10;76.70;;;;;;6125531;23;19998;-69
2023/04/28 03:24:59;;;;;;;8.73;2.92;;;12.10;76.80;;;;;;6124333;23;20009;-69
2023/04/28 03:27:25;;;;;;;9.27;2.92;;;12.10;76.70;;;;;;6125806;23;20010;-69
2023/04/28 03:29:51;;;;;;;11.95;3.03;;;12.10;76.90;;;;;;6125749;23;20002;-68
2023/04/28 03:32:17;;;;;;;6.82;3.35;;;12.10;76.70;;;;;;6125898;23;20096;-68
2023/04/28 03:34:43;;;;;;;10.13;3.38;;;12.00;76.80;;;;;;6125543;23;20069;-69
2023/04/28 03:37:08;;;;;;;7.10;3.60;;;12.00;77.50;;;;;;6125393;23;20084;-68
2023/04/28 03:39:34;;;;;;;6.10;3.20;;;12.00;77.60;;;;;;6126042;23;20389;-69
2023/04/28 03:42:00;;;;;;;6.60;3.20;;;12.00;77.60;;;;;;6125888;23;20002;-69
2023/04/28 03:44:25;;;;;;;8.40;3.22;;;12.00;77.90;;;;;;6125749;23;20060;-68
2023/04/28 03:46:51;;;;;;;9.73;3.00;;;12.00;78.00;;;;;;6125838;23;19998;-68
2023/04/28 03:49:17;;;;;;;7.65;3.17;;;12.00;77.70;;;;;;6125858;23;20309;-69
2023/04/28 03:51:42;;;;;;;6.80;3.08;;;11.90;77.50;;;;;;6128559;23;20018;-69
2023/04/28 03:54:08;;;;;;;7.95;3.53;;;11.90;77.70;;;;;;6125752;23;20053;-69
2023/04/28 03:56:34;;;;;;;8.60;3.72;;;11.90;77.80;;;;;;6125750;23;20009;-69
2023/04/28 03:59:00;;;;;;;15.25;3.72;;;11.90;77.80;;;;;;6125066;23;20017;-69
2023/04/28 04:01:25;;;;;;;9.50;3.67;;;11.90;78.00;;;;;;6125341;23;19998;-69
2023/04/28 04:03:51;;;;;;;11.90;3.35;;;11.90;78.30;;;;;;6127399;23;20436;-69
2023/04/28 04:06:17;;;;;;;8.77;3.58;;;11.90;79.20;;;;;;6127172;23;19998;-68
2023/04/28 04:08:43;;;;;;;8.68;3.60;;;11.90;78.90;;;;;;6127187;23;20010;-69
2023/04/28 04:11:09;;;;;;;4.55;3.05;;;11.90;78.80;;;;;;6126930;23;20048;-69
2023/04/28 04:13:35;;;;;;;10.30;3.13;;;11.90;78.90;;;;;;6127434;23;20009;-69
2023/04/28 04:16:00;;;;;;;10.30;3.10;;;11.90;78.70;;;;;;6127511;23;20002;-68
2023/04/28 04:18:26;;;;;;;14.18;2.95;;;11.90;78.80;;;;;;6126919;23;20340;-69
2023/04/28 04:20:56;;;;;;;9.52;3.03;;;11.90;78.60;;;;;;6127264;23;19997;-69
2023/04/28 04:23:22;;;;;;;7.90;3.03;;;11.90;78.90;;;;;;6127656;23;20109;-69
2023/04/28 04:25:48;;;;;;;11.27;3.20;;;11.90;79.00;;;;;;6127329;23;20025;-69
2023/04/28 04:28:14;;;;;;;14.52;3.38;;;11.80;79.30;;;;;;6123814;23;20010;-69
2023/04/28 04:30:40;;;;;;;5.95;3.03;;;11.80;80.30;;;;;;6123861;23;20006;-69
2023/04/28 04:33:06;;;;;;;7.18;3.25;;;11.90;80.00;;;;;;6126159;23;20056;-69
2023/04/28 04:35:32;;;;;;;8.57;3.10;;;11.80;79.70;;;;;;6127259;23;20432;-69
2023/04/28 04:37:58;;;;;;;8.10;2.80;;;11.90;79.80;;;;;;6126845;23;20093;-69
2023/04/28 04:40:24;;;;;;;7.30;2.90;;;11.90;79.60;;;;;;6100899;23;20310;-69
2023/04/28 04:42:50;;;;;;;7.97;2.78;;;11.90;79.30;;;;;;6127071;23;20029;-69
2023/04/28 04:45:16;;;;;;;5.15;3.10;;;11.90;79.40;;;;;;6126984;23;20061;-69
2023/04/28 04:47:42;;;;;;;9.75;3.15;;;11.90;79.80;;;;;;6126690;23;20002;-69
2023/04/28 04:50:09;;;;;;;24.77;4.25;;;11.90;80.30;;;;;;6126896;23;20001;-69
2023/04/28 04:52:36;;;;;;;17.35;3.55;;;11.90;80.10;;;;;;6126318;23;20080;-70
2023/04/28 04:55:02;;;;;;;21.77;3.97;;;11.90;80.30;;;;;;6126441;23;20049;-69
2023/04/28 04:57:28;;;;;;;10.10;2.83;;;11.90;80.90;;;;;;6126078;23;20014;-69
2023/04/28 04:59:54;;;;;;;11.93;3.35;;;11.90;80.50;;;;;;6126598;23;20455;-69
2023/04/28 05:02:20;;;;;;;14.45;3.05;;;12.00;80.70;;;;;;6126359;23;20073;-69
2023/04/28 05:04:45;;;;;;;17.02;4.55;;;12.00;80.40;;;;;;6126378;23;20002;-69
2023/04/28 05:07:11;;;;;;;10.68;2.67;;;12.00;80.60;;;;;;6126272;23;20002;-69
2023/04/28 05:09:37;;;;;;;8.73;2.60;;;12.00;81.00;;;;;;6127452;23;20002;-69
2023/04/28 05:12:03;;;;;;;7.97;3.05;;;12.00;81.10;;;;;;6126417;23;20064;-69
2023/04/28 05:14:29;;;;;;;9.95;2.60;;;12.00;81.60;;;;;;6126912;23;19997;-69
2023/04/28 05:16:54;;;;;;;13.95;2.70;;;12.00;81.40;;;;;;6126767;23;20120;-69
2023/04/28 05:19:20;;;;;;;6.40;2.50;;;12.00;81.40;;;;;;6126504;23;20384;-69
2023/04/28 05:21:46;;;;;;;12.23;2.50;;;12.00;81.40;;;;;;6126198;23;20080;-69
2023/04/28 05:24:13;;;;;;;9.40;3.00;;;12.10;81.30;;;;;;6126043;23;20006;-70
2023/04/28 05:26:39;;;;;;;8.55;2.40;;;12.00;80.60;;;;;;6125998;23;19998;-69
2023/04/28 05:29:05;;;;;;;10.38;2.92;;;12.00;81.20;;;;;;6125990;23;20013;-70
2023/04/28 05:31:31;;;;;;;7.93;2.33;;;12.00;81.60;;;;;;6126179;23;20033;-70
2023/04/28 05:33:57;;;;;;;16.35;3.20;;;12.00;81.70;;;;;;6126240;23;20002;-69
2023/04/28 05:36:23;;;;;;;6.40;2.78;;;12.00;82.00;;;;;;6125956;23;20436;-69
2023/04/28 05:38:49;;;;;;;5.43;2.95;;;12.10;82.50;;;;;;6126186;23;20017;-70
2023/04/28 05:41:15;;;;;;;13.93;2.78;;;12.10;82.60;;;;;;6126573;23;20024;-69
2023/04/28 05:43:41;;;;;;;8.90;3.58;;;12.20;82.90;;;;;;6126419;23;20077;-68
2023/04/28 05:46:06;;;;;;;7.03;3.65;;;12.20;83.10;;;;;;6126447;23;20420;-70
2023/04/28 05:48:32;;;;;;;7.97;3.42;;;12.20;83.10;;;;;;6126422;23;20009;-69
2023/04/28 05:50:58;;;;;;;13.68;2.97;;;12.30;83.70;;;;;;6126543;23;20017;-69
2023/04/28 05:53:23;;;;;;;5.43;2.88;;;12.30;83.80;;;;;;6127130;23;20012;-69
2023/04/28 05:55:51;;;;;;;8.02;2.75;;;12.40;84.20;;;;;;6125515;23;20029;-68
2023/04/28 05:58:17;;;;;;;9.95;3.05;;;12.50;84.80;;;;;;6125444;23;20017;-68
2023/04/28 06:00:42;;;;;;;12.82;2.83;;;12.50;84.50;;;;;;6125526;23;20057;-68
2023/04/28 06:03:09;;;;;;;6.15;2.90;;;12.50;84.30;;;;;;6125626;23;20006;-68
2023/04/28 06:05:36;;;;;;;7.70;2.75;;;12.60;84.20;;;;;;6125908;23;20013;-68
2023/04/28 06:08:02;;;;;;;16.35;3.03;;;12.70;84.20;;;;;;6125959;23;20002;-69
2023/04/28 06:10:28;;;;;;;12.13;3.50;;;12.70;83.90;;;;;;6125676;23;19998;-68
2023/04/28 06:12:54;;;;;;;16.13;3.08;;;12.80;84.60;;;;;;6126269;23;20008;-68
2023/04/28 06:15:20;;;;;;;10.13;3.00;;;12.90;85.00;;;;;;6126365;23;20028;-69
2023/04/28 06:17:46;;;;;;;10.38;2.40;;;12.90;85.10;;;;;;6125867;23;20010;-68
2023/04/28 06:20:12;;;;;;;4.80;2.40;;;12.90;85.30;;;;;;6126064;23;20009;-68
2023/04/28 06:22:39;;;;;;;6.40;2.65;;;13.00;84.80;;;;;;6125873;23;20016;-68
2023/04/28 06:25:06;;;;;;;24.08;3.95;;;13.00;84.10;;;;;;6125811;23;20447;-69
2023/04/28 06:27:31;;;;;;;14.10;2.80;;;13.10;84.30;;;;;;6126019;23;20085;-68
2023/04/28 06:29:58;;;;;;;16.50;3.03;;;13.20;84.90;;;;;;6126320;23;20029;-68
2023/04/28 06:32:24;;;;;;;11.32;3.00;;;13.10;84.50;;;;;;6126659;23;20080;-68
2023/04/28 06:34:49;;;;;;;12.00;3.17;;;13.20;84.90;;;;;;6125914;23;20455;-69
2023/04/28 06:37:15;;;;;;;7.93;2.63;;;13.30;85.50;;;;;;6125942;23;20076;-68
2023/04/28 06:39:41;;;;;;;13.48;2.70;;;13.30;85.30;;;;;;6125960;23;20013;-69
2023/04/28 06:42:07;;;;;;;5.20;2.75;;;13.40;85.20;;;;;;6126002;23;20001;-69
2023/04/28 06:44:33;;;;;;;17.67;2.72;;;13.40;84.80;;;;;;6126078;23;20429;-69
2023/04/28 06:46:59;;;;;;;13.93;2.65;;;13.50;84.70;;;;;;6125922;23;20002;-68
2023/04/28 06:49:24;;;;;;;13.65;3.03;;;13.60;84.90;;;;;;6125635;23;20006;-69
2023/04/28 06:51:50;;;;;;;13.02;2.70;;;13.60;84.60;;;;;;6125684;23;20021;-69
2023/04/28 06:54:17;;;;;;;8.07;2.78;;;13.70;84.70;;;;;;6126117;23;20444;-68
2023/04/28 06:56:43;;;;;;;11.40;3.00;;;13.70;84.30;;;;;;6125987;23;20025;-68
2023/04/28 06:59:09;;;;;;;6.55;2.58;;;13.80;84.40;;;;;;6125812;23;20017;-68
2023/04/28 07:01:34;;;;;;;8.80;2.78;;;13.80;84.20;;;;;;6126004;23;19998;-69
2023/04/28 07:04:00;;;;;;;7.57;2.55;;;13.90;84.10;;;;;;6126060;23;20313;-68
2023/04/28 07:06:26;;;;;;;7.32;2.35;;;13.90;83.90;;;;;;6126294;23;20006;-68
2023/04/28 07:08:52;;;;;;;9.27;2.50;;;13.90;83.60;;;;;;6126167;23;20080;-68
2023/04/28 07:11:18;;;;;;;9.88;2.35;;;14.00;83.20;;;;;;6125984;23;20005;-68
2023/04/28 07:13:48;;;;;;;7.07;2.50;;;14.00;82.30;;;;;;6126072;23;20002;-69
2023/04/28 07:16:14;;;;;;;6.20;2.30;;;14.00;81.70;;;;;;6126053;23;20002;-68
2023/04/28 07:18:40;;;;;;;7.60;2.20;;;14.10;81.60;;;;;;6125449;23;20064;-69
2023/04/28 07:21:05;;;;;;;8.23;2.88;;;14.10;81.30;;;;;;6126003;23;20002;-69
2023/04/28 07:23:31;;;;;;;10.60;2.08;;;14.10;80.80;;;;;;6125807;23;20369;-68
2023/04/28 07:25:57;;;;;;;8.98;2.78;;;14.20;80.60;;;;;;6125636;23;19998;-68
2023/04/28 07:28:23;;;;;;;9.45;2.78;;;14.20;80.30;;;;;;6126061;23;20006;-69
2023/04/28 07:30:49;;;;;;;3.97;2.25;;;14.20;80.00;;;;;;6126227;23;20006;-69
2023/04/28 07:33:15;;;;;;;8.63;2.40;;;14.30;79.90;;;;;;6125826;23;20029;-68
2023/04/28 07:35:40;;;;;;;6.70;2.22;;;14.30;80.00;;;;;;6125943;23;20002;-69
2023/04/28 07:38:06;;;;;;;10.60;2.80;;;14.30;80.10;;;;;;6127204;23;20344;-69
2023/04/28 07:40:32;;;;;;;7.75;2.78;;;14.40;80.40;;;;;;6127774;23;20085;-69
2023/04/28 07:42:58;;;;;;;14.05;2.50;;;14.40;79.80;;;;;;6127780;23;20006;-69
2023/04/28 07:45:23;;;;;;;10.85;2.65;;;14.40;79.60;;;;;;6127262;23;20005;-68
2023/04/28 07:47:49;;;;;;;7.35;2.53;;;14.50;79.60;;;;;;6127451;23;19998;-68
2023/04/28 07:50:16;;;;;;;10.68;2.60;;;14.50;79.90;;;;;;6127206;23;20337;-70
2023/04/28 07:52:42;;;;;;;6.90;1.90;;;14.50;80.00;;;;;;6125225;23;20018;-68
2023/04/28 07:55:08;;;;;;;3.97;2.33;;;14.50;81.20;;;;;;6126453;23;20006;-69
2023/04/28 07:57:34;;;;;;;5.55;2.13;;;14.50;81.00;;;;;;6126451;23;20097;-69
2023/04/28 08:00:00;;;;;;;4.82;1.73;;;14.50;80.90;;;;;;6126279;23;20086;-68
2023/04/28 08:02:26;;;;;;;5.10;1.77;;;14.50;80.50;;;;;;6126301;23;20010;-68
2023/04/28 08:04:52;;;;;;;5.03;1.83;;;14.50;80.90;;;;;;6126493;23;20445;-68
2023/04/28 08:07:18;;;;;;;5.20;1.65;;;14.60;81.00;;;;;;6126242;23;20060;-68
2023/04/28 08:09:46;;;;;;;4.82;1.85;;;14.60;80.60;;;;;;6127012;23;20060;-68
2023/04/28 08:12:15;;;;;;;5.40;1.60;;;14.60;80.30;;;;;;6126599;23;20006;-69
2023/04/28 08:14:41;;;;;;;6.60;1.80;;;14.60;80.30;;;;;;6126676;23;20002;-68
2023/04/28 08:17:07;;;;;;;4.65;1.77;;;14.60;80.20;;;;;;6126409;23;20037;-68
2023/04/28 08:19:33;;;;;;;6.72;2.17;;;14.60;80.00;;;;;;6126226;23;20294;-68
2023/04/28 08:22:04;;;;;;;4.93;1.67;;;14.70;80.60;;;;;;6126244;23;20413;-68
2023/04/28 08:24:33;;;;;;;7.57;2.00;;;14.70;80.30;;;;;;6126294;23;20029;-68
2023/04/28 08:27:01;;;;;;;7.43;2.42;;;14.70;80.10;;;;;;6126515;23;19998;-67
2023/04/28 08:29:28;;;;;;;6.70;1.98;;;14.70;80.20;;;;;;6126705;23;20005;-68
2023/04/28 08:31:55;;;;;;;7.72;2.10;;;14.70;80.20;;;;;;6126026;23;20081;-67
2023/04/28 08:34:20;;;;;;;9.30;1.85;;;14.70;80.80;;;;;;6126460;23;19994;-67
2023/04/28 08:36:46;;;;;;;4.78;1.88;;;14.70;80.60;;;;;;6126746;23;20377;-68
2023/04/28 08:39:12;;;;;;;4.30;1.85;;;14.70;80.30;;;;;;6126290;23;20014;-68
2023/04/28 08:41:40;;;;;;;5.05;1.70;;;14.70;79.50;;;;;;6126068;23;19998;-67
2023/04/28 08:44:10;;;;;;;15.70;2.22;;;14.80;78.90;;;;;;6126257;23;20002;-69
2023/04/28 08:46:40;;;;;;;5.05;2.15;;;14.80;78.70;;;;;;6125344;23;20029;-69
2023/04/28 08:49:15;;;;;;;10.05;2.17;;;14.80;78.80;;;;;;6126524;23;20082;-69
2023/04/28 08:51:49;;;;;;;4.55;1.80;;;14.90;78.90;;;;;;6126535;23;20022;-68
2023/04/28 08:54:16;;;;;;;7.85;2.17;;;14.90;78.40;;;;;;6126655;23;20032;-67
2023/04/28 08:56:45;;;;;;;6.47;1.73;;;14.90;78.00;;;;;;6126501;23;20002;-68
2023/04/28 08:59:12;;;;;;;7.93;2.10;;;14.90;77.80;;;;;;6126332;23;20061;-68
2023/04/28 09:01:38;;;;;;;9.25;2.47;;;15.00;79.40;;;;;;6126631;23;20069;-68
2023/04/28 09:04:04;;;;;;;6.45;2.17;;;15.00;81.80;;;;;;6126762;23;20372;-68
2023/04/28 09:06:37;;;;;;;5.45;2.17;;;15.00;81.30;;;;;;6126600;23;20034;-68
2023/04/28 09:09:25;;;;;;;6.15;2.13;;;15.00;81.00;;;;;;6126632;23;20006;-68
2023/04/28 09:11:58;;;;;;;8.23;2.17;;;15.00;80.90;;;;;;6126320;23;20001;-67
2023/04/28 09:14:24;;;;;;;3.70;2.00;;;14.90;80.50;;;;;;6100448;23;20318;-67
2023/04/28 09:16:50;;;;;;;11.77;2.60;;;15.00;80.90;;;;;;6126717;23;20009;-68
2023/04/28 09:19:16;;;;;;;16.25;2.25;;;15.00;80.70;;;;;;6126719;23;20018;-68
2023/04/28 09:21:46;;;;;;;8.57;2.38;;;15.00;80.60;;;;;;6126534;23;19998;-69
2023/04/28 09:24:25;;;;;;;6.68;1.85;;;15.10;82.10;;;;;;6126236;23;20017;-69
2023/04/28 09:26:51;;;;;;;3.88;2.50;;;15.10;82.40;;;;;;6126265;23;20005;-69
2023/04/28 09:29:16;;;;;;;5.53;2.60;;;15.10;82.80;;;;;;6126350;23;19998;-69
2023/04/28 09:31:43;;;;;;;6.10;2.60;;;15.10;82.20;;;;;;6126500;23;20060;-69
2023/04/28 09:34:10;;;;;;;10.10;3.13;;;15.10;81.70;;;;;;6126551;23;20085;-69
2023/04/28 09:36:36;;;;;;;14.65;3.13;;;15.10;83.10;;;;;;6126827;23;20017;-69
2023/04/28 09:39:03;;;;;;;8.85;2.50;;;15.10;83.30;;;;;;6126307;23;20436;-69
2023/04/28 09:41:42;;;;;;;8.80;2.40;;;15.10;86.00;;;;;;6126310;23;20328;-69
2023/04/28 09:44:18;;;;;;;3.58;2.20;;;15.10;86.20;;;;;;6126625;23;20080;-69
2023/04/28 09:46:45;;;;;;;6.47;2.67;;;15.10;86.80;;;;;;6126230;23;20451;-69
2023/04/28 09:49:14;;;;;;;5.97;2.92;;;15.10;88.20;;;;;;6126042;23;20097;-70
2023/04/28 09:51:40;;;;;;;9.85;2.45;;;15.10;89.30;;;;;;6125337;23;20014;-69
2023/04/28 09:54:06;;;;;;;7.03;2.65;;;15.10;89.20;;;;;;6125799;23;20001;-69
2023/04/28 09:56:34;;;;;;;5.97;2.65;;;15.10;88.20;;;;;;6126166;23;20009;-69
2023/04/28 09:59:01;;;;;;;4.60;2.67;;;15.10;90.10;;;;;;6126163;23;20314;-69
2023/04/28 10:01:31;;;;;;;13.13;3.10;;;15.20;88.70;;;;;;6125808;23;20014;-69
2023/04/28 10:03:59;;;;;;;5.43;3.30;;;15.20;88.90;;;;;;6125996;23;20037;-69
2023/04/28 10:06:28;;;;;;;7.90;2.80;;;15.20;90.70;;;;;;6125888;23;20002;-69
2023/04/28 10:08:56;;;;;;;8.20;3.08;;;15.20;90.10;;;;;;6125996;23;20013;-69
2023/04/28 10:11:24;;;;;;;5.30;3.03;;;15.20;89.10;;;;;;6125980;23;20109;-69
2023/04/28 10:13:51;;;;;;;8.07;3.40;;;15.20;88.80;;;;;;6125878;23;20010;-68
2023/04/28 10:16:19;;;;;;;9.07;3.08;;;15.20;88.00;;;;;;6125649;23;20009;-69
2023/04/28 10:18:45;;;;;;;9.68;3.75;;;15.20;88.10;;;;;;6125404;23;20496;-69
2023/04/28 10:21:13;;;;;;;10.02;3.25;;;15.20;88.20;;;;;;6125958;23;20002;-69
2023/04/28 10:23:58;;;;;;;7.35;3.50;;;15.20;88.10;;;;;;6125097;23;20002;-69
2023/04/28 10:26:58;;;;;;;10.52;3.20;;;15.30;89.20;;;;;;6124723;23;20009;-69
2023/04/28 10:29:25;;;;;;;7.40;3.60;;;15.20;89.40;;;;;;6125449;23;20002;-71
2023/04/28 10:32:27;;;;;;;10.73;3.20;;;15.30;90.60;;;;;;6098949;23;20337;-69
2023/04/28 10:35:22;;;;;;;11.83;3.03;;;15.20;90.60;;;;;;6125761;23;20010;-69
2023/04/28 10:38:08;;;;;;;9.63;3.20;;;15.20;90.90;;;;;;6124878;23;20002;-68
2023/04/28 10:40:51;;;;;;;8.48;3.83;;;15.20;92.50;;;;;;6124744;23;20002;-69
2023/04/28 10:43:31;;;;;;;14.30;3.33;;;15.30;92.80;;;;;;6124803;23;20382;-69
2023/04/28 10:46:00;;;;;;;8.35;3.40;;;15.20;93.20;;;;;;6125017;23;20408;-69
2023/04/28 10:48:32;;;;;;;6.63;3.30;;;15.30;93.20;;;;;;6125292;23;20068;-69
2023/04/28 10:53:49;;;;;;;10.43;3.33;;;15.30;93.70;;;;;;6125408;23;20033;-69
2023/04/28 10:56:15;;;;;;;6.38;2.80;;;15.30;94.00;;;;;;6124816;23;20455;-69
2023/04/28 10:58:42;;;;;;;7.75;3.22;;;15.30;93.40;;;;;;6125141;23;20014;-69
2023/04/28 11:01:20;;;;;;;8.38;3.10;;;15.30;93.20;;;;;;6125748;23;20002;-68
2023/04/28 11:03:49;;;;;;;9.25;3.63;;;15.40;93.10;;;;;;6124961;23;20020;-69
2023/04/28 11:06:32;;;;;;;8.82;4.00;;;15.40;94.10;;;;;;6125329;23;20309;-69
2023/04/28 11:08:59;;;;;;;9.05;3.90;;;15.50;94.70;;;;;;6125543;23;20425;-68
2023/04/28 11:11:27;;;;;;;7.57;2.70;;;15.70;94.10;;;;;;6127002;23;20214;-68
2023/04/28 11:14:16;;;;;;;7.97;2.40;;;15.80;93.30;;;;;;6124743;23;20057;-68
2023/04/28 11:16:48;;;;;;;6.30;2.85;;;16.00;91.90;;;;;;6123849;23;20029;-70
2023/04/28 11:19:18;;;;;;;4.55;2.50;;;16.10;91.20;;;;;;6126485;23;20100;-70
2023/04/28 11:21:47;;;;;;;4.65;2.50;;;16.20;90.50;;;;;;6127385;23;20009;-69
2023/04/28 11:24:13;;;;;;;7.70;2.78;;;16.20;90.50;;;;;;6127462;23;20324;-68
2023/04/28 11:26:39;;;;;;;5.35;2.42;;;16.20;90.50;;;;;;6127558;23;20021;-68
2023/04/28 11:29:05;;;;;;;3.03;2.35;;;16.20;90.50;;;;;;6127180;23;20002;-69
2023/04/28 11:31:31;;;;;;;6.65;2.20;;;16.20;90.50;;;;;;6127489;23;20089;-69
2023/04/28 11:33:58;;;;;;;6.30;2.00;;;16.30;90.30;;;;;;6127438;23;20025;-69
2023/04/28 11:36:27;;;;;;;5.45;2.10;;;16.40;88.90;;;;;;6127539;23;20041;-69
2023/04/28 11:38:55;;;;;;;8.77;2.20;;;16.40;87.80;;;;;;6124872;23;20014;-69
2023/04/28 11:41:20;;;;;;;3.85;1.63;;;16.50;87.10;;;;;;6124260;23;20030;-69
2023/04/28 11:43:46;;;;;;;3.92;1.55;;;16.60;85.80;;;;;;6124593;23;20124;-69
2023/04/28 11:46:20;;;;;;;3.10;1.58;;;16.50;84.80;;;;;;6127271;23;20002;-69
2023/04/28 11:48:47;;;;;;;1.98;1.40;;;16.50;83.30;;;;;;6101831;23;20089;-69
2023/04/28 11:51:32;;;;;;;2.58;1.00;;;16.50;82.60;;;;;;6127126;23;20014;-68
2023/04/28 11:53:58;;;;;;;2.65;1.30;;;16.50;81.30;;;;;;6126724;23;20081;-68
2023/04/28 11:56:25;;;;;;;2.58;1.27;;;16.60;80.80;;;;;;6127008;23;20006;-70
2023/04/28 11:59:24;;;;;;;3.35;1.58;;;16.60;81.30;;;;;;6126668;23;20013;-69
2023/04/28 12:01:50;;;;;;;3.13;1.63;;;16.60;81.80;;;;;;6115766;23;20017;-70
2023/04/28 12:04:36;;;;;;;3.63;1.70;;;16.70;81.80;;;;;;6127207;23;20073;-70
2023/04/28 12:07:09;;;;;;;7.40;1.65;;;16.70;81.40;;;;;;6127135;23;20056;-70
2023/04/28 12:09:35;;;;;;;2.22;1.15;;;16.80;80.80;;;;;;6127605;23;20038;-69
2023/04/28 12:12:03;;;;;;;2.28;0.98;;;16.80;79.00;;;;;;6127294;23;20049;-69
2023/04/28 12:14:34;;;;;;;2.85;1.20;;;16.80;77.90;;;;;;6126866;23;20014;-69
2023/04/28 12:17:00;;;;;;;1.65;1.20;;;16.90;77.80;;;;;;6126820;23;20005;-69
2023/04/28 12:19:26;;;;;;;5.20;1.10;;;17.00;78.10;;;;;;6126834;23;20136;-71
2023/04/28 12:22:06;;;;;;;2.45;1.02;;;16.90;77.90;;;;;;6126734;23;19998;-69
2023/04/28 12:24:32;;;;;;;2.92;1.13;;;17.00;76.60;;;;;;6126917;23;20002;-69
2023/04/28 12:27:23;;;;;;;3.83;1.17;;;17.00;76.00;;;;;;6127246;23;20033;-69
2023/04/28 12:29:50;;;;;;;4.07;1.00;;;17.00;74.20;;;;;;6126212;23;20006;-69
2023/04/28 12:32:16;;;;;;;2.42;0.80;;;17.00;73.70;;;;;;6125762;23;20029;-68
2023/04/28 12:34:44;;;;;;;2.75;0.60;;;17.00;73.60;;;;;;6126784;23;20006;-69
2023/04/28 12:37:11;;;;;;;2.50;0.60;;;17.00;72.20;;;;;;6126659;23;20329;-70
2023/04/28 12:39:39;;;;;;;2.78;0.80;;;17.00;71.70;;;;;;6127064;23;20010;-68
2023/04/28 12:42:06;;;;;;;1.00;0.60;;;17.00;71.30;;;;;;6126987;23;20006;-69
2023/04/28 12:44:34;;;;;;;2.33;0.80;;;17.10;71.60;;;;;;6125763;23;20073;-68
2023/04/28 12:47:06;;;;;;;3.80;0.75;;;17.10;70.40;;;;;;6125836;23;20005;-69
2023/04/28 12:49:32;;;;;;;1.65;0.80;;;17.00;70.50;;;;;;6126388;23;20476;-71